createdAt,value
2022-12-29T00:00:29.614Z,8.64
2022-12-29T00:01:29.577Z,8.64
2022-12-29T00:02:29.607Z,8.63
2022-12-29T00:03:30.025Z,8.63
2022-12-29T00:04:29.555Z,8.66
2022-12-29T00:05:29.552Z,8.67
2022-12-29T00:06:29.533Z,8.64
2022-12-29T00:07:29.516Z,8.64
2022-12-29T00:08:29.515Z,8.63
2022-12-29T00:09:29.494Z,8.63
2022-12-29T00:10:30.069Z,8.63
2022-12-29T00:11:29.470Z,8.63
2022-12-29T00:12:29.473Z,8.63
2022-12-29T00:13:29.458Z,8.63
2022-12-29T00:14:29.463Z,8.64
2022-12-29T00:15:29.682Z,8.64
2022-12-29T00:16:29.561Z,8.63
2022-12-29T00:17:29.412Z,8.63
2022-12-29T00:18:29.411Z,8.61
2022-12-29T00:19:29.386Z,8.61
2022-12-29T00:20:29.779Z,8.61
2022-12-29T00:21:29.369Z,8.64
2022-12-29T00:22:29.820Z,8.69
2022-12-29T00:23:29.355Z,8.69
2022-12-29T00:24:29.348Z,8.70
2022-12-29T00:25:29.326Z,8.70
2022-12-29T00:26:29.322Z,8.71
2022-12-29T00:27:29.315Z,8.70
2022-12-29T00:28:29.304Z,8.70
2022-12-29T00:29:29.304Z,8.71
2022-12-29T00:30:29.841Z,8.71
2022-12-29T00:31:29.280Z,8.78
2022-12-29T00:32:29.269Z,8.76
2022-12-29T00:33:29.245Z,8.74
2022-12-29T00:34:29.249Z,8.74
2022-12-29T00:35:29.937Z,8.76
2022-12-29T00:36:29.219Z,8.73
2022-12-29T00:37:29.205Z,8.76
2022-12-29T00:38:29.202Z,8.76
2022-12-29T00:39:29.191Z,8.76
2022-12-29T00:40:29.188Z,8.78
2022-12-29T00:41:29.176Z,8.74
2022-12-29T00:42:29.167Z,8.74
2022-12-29T00:43:29.151Z,8.74
2022-12-29T00:44:29.153Z,8.74
2022-12-29T00:45:29.125Z,8.76
2022-12-29T00:46:30.080Z,8.78
2022-12-29T00:47:29.167Z,8.74
2022-12-29T00:48:29.102Z,8.78
2022-12-29T00:49:29.080Z,8.78
2022-12-29T00:50:29.801Z,8.79
2022-12-29T00:51:29.071Z,8.79
2022-12-29T00:52:29.073Z,8.79
2022-12-29T00:53:29.038Z,8.79
2022-12-29T00:54:29.046Z,8.78
2022-12-29T00:55:29.026Z,8.79
2022-12-29T00:56:29.756Z,8.76
2022-12-29T00:57:29.010Z,8.78
2022-12-29T00:58:28.991Z,8.78
2022-12-29T00:59:28.981Z,8.79
2022-12-29T01:00:29.035Z,8.79
2022-12-29T01:01:29.104Z,8.82
2022-12-29T01:02:29.371Z,8.81
2022-12-29T01:03:28.943Z,8.81
2022-12-29T01:04:28.935Z,8.79
2022-12-29T01:05:28.925Z,8.79
2022-12-29T01:06:28.917Z,8.79
2022-12-29T01:07:29.630Z,8.79
2022-12-29T01:08:28.907Z,8.76
2022-12-29T01:09:28.882Z,8.78
2022-12-29T01:10:28.880Z,8.82
2022-12-29T01:11:28.855Z,8.84
2022-12-29T01:12:28.854Z,8.85
2022-12-29T01:13:28.839Z,8.88
2022-12-29T01:14:28.829Z,8.85
2022-12-29T01:15:28.818Z,8.88
2022-12-29T01:16:28.852Z,8.88
2022-12-29T01:17:28.801Z,8.88
2022-12-29T01:18:29.204Z,8.91
2022-12-29T01:19:28.774Z,8.89
2022-12-29T01:20:28.769Z,8.92
2022-12-29T01:21:28.766Z,8.91
2022-12-29T01:22:28.760Z,8.87
2022-12-29T01:23:28.731Z,8.91
2022-12-29T01:24:28.748Z,8.92
2022-12-29T01:25:28.729Z,8.91
2022-12-29T01:26:28.717Z,8.92
2022-12-29T01:27:28.688Z,8.99
2022-12-29T01:28:28.687Z,8.97
2022-12-29T01:29:29.074Z,8.99
2022-12-29T01:30:28.673Z,9.00
2022-12-29T01:31:28.695Z,9.02
2022-12-29T01:32:28.639Z,9.02
2022-12-29T01:33:28.626Z,9.00
2022-12-29T01:34:28.620Z,9.03
2022-12-29T01:35:28.969Z,9.02
2022-12-29T01:36:28.604Z,9.04
2022-12-29T01:37:28.597Z,9.04
2022-12-29T01:38:28.608Z,9.08
2022-12-29T01:39:28.561Z,9.08
2022-12-29T01:40:28.558Z,9.04
2022-12-29T01:41:28.555Z,9.08
2022-12-29T01:42:28.533Z,9.06
2022-12-29T01:43:28.519Z,9.08
2022-12-29T01:44:28.510Z,9.06
2022-12-29T01:45:28.585Z,9.10
2022-12-29T01:46:28.492Z,9.11
2022-12-29T01:47:28.480Z,9.13
2022-12-29T01:48:28.479Z,9.19
2022-12-29T01:49:28.480Z,9.22
2022-12-29T01:50:29.285Z,9.25
2022-12-29T01:51:28.429Z,9.26
2022-12-29T01:52:28.433Z,9.25
2022-12-29T01:53:28.415Z,9.26
2022-12-29T01:54:28.410Z,9.23
2022-12-29T01:55:28.399Z,9.25
2022-12-29T01:56:28.393Z,9.25
2022-12-29T01:57:28.368Z,9.25
2022-12-29T01:58:28.373Z,9.29
2022-12-29T01:59:28.348Z,9.29
2022-12-29T02:00:28.346Z,9.31
2022-12-29T02:01:28.389Z,9.31
2022-12-29T02:02:32.461Z,9.32
2022-12-29T02:03:28.388Z,9.39
2022-12-29T02:04:28.294Z,9.37
2022-12-29T02:05:28.284Z,9.39
2022-12-29T02:06:28.295Z,9.39
2022-12-29T02:07:28.293Z,9.40
2022-12-29T02:08:28.263Z,9.40
2022-12-29T02:09:28.237Z,9.41
2022-12-29T02:10:28.243Z,9.41
2022-12-29T02:11:28.221Z,9.39
2022-12-29T02:12:28.217Z,9.37
2022-12-29T02:13:28.228Z,9.41
2022-12-29T02:14:28.196Z,9.41
2022-12-29T02:15:28.176Z,9.40
2022-12-29T02:16:28.248Z,9.41
2022-12-29T02:17:28.165Z,9.39
2022-12-29T02:18:28.156Z,9.43
2022-12-29T02:19:28.137Z,9.41
2022-12-29T02:20:28.132Z,9.44
2022-12-29T02:21:28.108Z,9.44
2022-12-29T02:22:28.122Z,9.43
2022-12-29T02:23:28.090Z,9.43
2022-12-29T02:24:28.081Z,9.46
2022-12-29T02:25:28.076Z,9.47
2022-12-29T02:26:28.063Z,9.47
2022-12-29T02:27:28.057Z,9.47
2022-12-29T02:28:28.045Z,9.48
2022-12-29T02:29:28.034Z,9.48
2022-12-29T02:30:28.492Z,9.51
2022-12-29T02:31:28.064Z,9.51
2022-12-29T02:32:27.998Z,9.54
2022-12-29T02:33:27.989Z,9.54
2022-12-29T02:34:27.987Z,9.54
2022-12-29T02:35:27.963Z,9.55
2022-12-29T02:36:27.952Z,9.56
2022-12-29T02:37:27.950Z,9.58
2022-12-29T02:38:28.795Z,9.58
2022-12-29T02:39:27.927Z,9.56
2022-12-29T02:40:27.934Z,9.54
2022-12-29T02:41:27.899Z,9.54
2022-12-29T02:42:28.271Z,9.50
2022-12-29T02:43:27.889Z,9.48
2022-12-29T02:44:27.873Z,9.48
2022-12-29T02:45:28.020Z,9.50
2022-12-29T02:46:27.880Z,9.43
2022-12-29T02:47:27.830Z,9.41
2022-12-29T02:48:27.826Z,9.44
2022-12-29T02:49:27.809Z,9.46
2022-12-29T02:50:27.808Z,9.43
2022-12-29T02:51:27.790Z,9.44
2022-12-29T02:52:27.783Z,9.44
2022-12-29T02:53:27.769Z,9.48
2022-12-29T02:54:27.760Z,9.48
2022-12-29T02:55:28.151Z,9.47
2022-12-29T02:56:27.753Z,9.47
2022-12-29T02:57:27.727Z,9.48
2022-12-29T02:58:27.717Z,9.50
2022-12-29T02:59:27.709Z,9.50
2022-12-29T03:00:27.702Z,9.48
2022-12-29T03:01:27.746Z,9.51
2022-12-29T03:02:27.802Z,9.50
2022-12-29T03:03:27.741Z,9.50
2022-12-29T03:04:27.653Z,9.54
2022-12-29T03:05:27.636Z,9.54
2022-12-29T03:06:28.405Z,9.51
2022-12-29T03:07:27.620Z,9.54
2022-12-29T03:08:27.609Z,9.48
2022-12-29T03:09:27.598Z,9.48
2022-12-29T03:10:27.591Z,9.47
2022-12-29T03:11:27.577Z,9.46
2022-12-29T03:12:27.569Z,9.44
2022-12-29T03:13:27.561Z,9.41
2022-12-29T03:14:27.556Z,9.40
2022-12-29T03:15:27.533Z,9.39
2022-12-29T03:16:27.558Z,9.40
2022-12-29T03:17:27.501Z,9.39
2022-12-29T03:18:27.518Z,9.43
2022-12-29T03:19:27.485Z,9.48
2022-12-29T03:20:28.239Z,9.48
2022-12-29T03:21:27.460Z,9.48
2022-12-29T03:22:27.478Z,9.51
2022-12-29T03:23:27.835Z,9.54
2022-12-29T03:24:27.455Z,9.50
2022-12-29T03:25:27.431Z,9.55
2022-12-29T03:26:27.417Z,9.58
2022-12-29T03:27:27.411Z,9.61
2022-12-29T03:28:27.391Z,9.61
2022-12-29T03:29:27.382Z,9.62
2022-12-29T03:30:27.439Z,9.68
2022-12-29T03:31:27.385Z,9.68
2022-12-29T03:32:27.360Z,9.72
2022-12-29T03:33:27.735Z,9.69
2022-12-29T03:34:27.321Z,9.73
2022-12-29T03:35:27.335Z,9.69
2022-12-29T03:36:27.309Z,9.69
2022-12-29T03:37:27.306Z,9.73
2022-12-29T03:38:28.051Z,9.74
2022-12-29T03:39:27.831Z,9.72
2022-12-29T03:40:27.257Z,9.74
2022-12-29T03:41:27.267Z,9.74
2022-12-29T03:42:27.738Z,9.73
2022-12-29T03:43:27.230Z,9.69
2022-12-29T03:44:27.235Z,9.73
2022-12-29T03:45:27.219Z,9.74
2022-12-29T03:46:27.264Z,9.73
2022-12-29T03:47:27.200Z,9.76
2022-12-29T03:48:27.179Z,9.72
2022-12-29T03:49:27.174Z,9.72
2022-12-29T03:50:27.195Z,9.68
2022-12-29T03:51:27.144Z,9.66
2022-12-29T03:52:27.128Z,9.65
2022-12-29T03:53:27.133Z,9.65
2022-12-29T03:54:27.115Z,9.62
2022-12-29T03:55:27.110Z,9.59
2022-12-29T03:56:27.092Z,9.62
2022-12-29T03:57:27.082Z,9.62
2022-12-29T03:58:27.079Z,9.64
2022-12-29T03:59:27.081Z,9.65
2022-12-29T04:00:27.043Z,9.66
2022-12-29T04:01:27.179Z,9.66
2022-12-29T04:02:27.180Z,9.66
2022-12-29T04:03:27.048Z,9.66
2022-12-29T04:04:26.998Z,9.64
2022-12-29T04:05:26.997Z,9.65
2022-12-29T04:06:26.996Z,9.66
2022-12-29T04:07:26.975Z,9.66
2022-12-29T04:08:26.963Z,9.66
2022-12-29T04:09:26.947Z,9.66
2022-12-29T04:10:26.931Z,9.66
2022-12-29T04:11:32.801Z,9.69
2022-12-29T04:12:26.914Z,9.65
2022-12-29T04:13:26.899Z,9.65
2022-12-29T04:14:26.903Z,9.66
2022-12-29T04:15:26.960Z,9.65
2022-12-29T04:16:26.916Z,9.68
2022-12-29T04:17:26.862Z,9.68
2022-12-29T04:18:26.843Z,9.66
2022-12-29T04:19:26.845Z,9.66
2022-12-29T04:20:26.839Z,9.61
2022-12-29T04:21:26.820Z,9.65
2022-12-29T04:22:26.816Z,9.65
2022-12-29T04:23:26.792Z,9.64
2022-12-29T04:24:26.804Z,9.61
2022-12-29T04:25:26.776Z,9.61
2022-12-29T04:26:26.763Z,9.61
2022-12-29T04:27:26.767Z,9.62
2022-12-29T04:28:26.737Z,9.61
2022-12-29T04:29:26.739Z,9.61
2022-12-29T04:30:26.717Z,9.62
2022-12-29T04:31:26.764Z,9.62
2022-12-29T04:32:26.689Z,9.61
2022-12-29T04:33:26.703Z,9.58
2022-12-29T04:34:26.689Z,9.56
2022-12-29T04:35:26.670Z,9.55
2022-12-29T04:36:30.119Z,9.51
2022-12-29T04:37:26.649Z,9.51
2022-12-29T04:38:27.046Z,9.48
2022-12-29T04:39:26.625Z,9.48
2022-12-29T04:40:26.610Z,9.46
2022-12-29T04:41:26.620Z,9.44
2022-12-29T04:42:26.603Z,9.43
2022-12-29T04:43:26.587Z,9.40
2022-12-29T04:44:26.566Z,9.39
2022-12-29T04:45:26.563Z,9.36
2022-12-29T04:46:26.573Z,9.31
2022-12-29T04:47:26.541Z,9.28
2022-12-29T04:48:27.226Z,9.29
2022-12-29T04:49:26.519Z,9.22
2022-12-29T04:50:26.500Z,9.23
2022-12-29T04:51:26.505Z,9.21
2022-12-29T04:52:26.496Z,9.18
2022-12-29T04:53:26.480Z,9.14
2022-12-29T04:54:26.463Z,9.13
2022-12-29T04:55:26.452Z,9.10
2022-12-29T04:56:26.445Z,9.10
2022-12-29T04:57:27.206Z,9.11
2022-12-29T04:58:26.420Z,9.11
2022-12-29T04:59:26.412Z,9.13
2022-12-29T05:00:26.405Z,9.13
2022-12-29T05:01:26.465Z,9.13
2022-12-29T05:02:26.597Z,9.11
2022-12-29T05:03:26.469Z,9.11
2022-12-29T05:04:26.352Z,9.08
2022-12-29T05:05:26.355Z,9.11
2022-12-29T05:06:26.344Z,9.08
2022-12-29T05:07:26.321Z,9.10
2022-12-29T05:08:28.608Z,9.06
2022-12-29T05:09:26.701Z,9.06
2022-12-29T05:10:26.296Z,9.10
2022-12-29T05:11:26.273Z,9.08
2022-12-29T05:12:26.262Z,9.08
2022-12-29T05:13:26.660Z,9.08
2022-12-29T05:14:26.250Z,9.08
2022-12-29T05:15:26.244Z,9.14
2022-12-29T05:16:26.296Z,9.18
2022-12-29T05:17:26.225Z,9.18
2022-12-29T05:18:26.198Z,9.19
2022-12-29T05:19:26.199Z,9.18
2022-12-29T05:20:26.180Z,9.18
2022-12-29T05:21:26.173Z,9.19
2022-12-29T05:22:26.172Z,9.18
2022-12-29T05:23:26.152Z,9.25
2022-12-29T05:24:26.128Z,9.23
2022-12-29T05:25:26.129Z,9.26
2022-12-29T05:26:26.119Z,9.28
2022-12-29T05:27:26.932Z,9.28
2022-12-29T05:28:26.087Z,9.34
2022-12-29T05:29:26.087Z,9.34
2022-12-29T05:30:26.066Z,9.34
2022-12-29T05:31:26.121Z,9.32
2022-12-29T05:32:26.459Z,9.39
2022-12-29T05:33:26.047Z,9.41
2022-12-29T05:34:26.032Z,9.46
2022-12-29T05:35:26.017Z,9.50
2022-12-29T05:36:26.024Z,9.56
2022-12-29T05:37:26.005Z,9.58
2022-12-29T05:38:25.986Z,9.61
2022-12-29T05:39:25.966Z,9.59
2022-12-29T05:40:25.955Z,9.62
2022-12-29T05:41:25.947Z,9.61
2022-12-29T05:42:25.942Z,9.61
2022-12-29T05:43:26.356Z,9.58
2022-12-29T05:44:25.926Z,9.58
2022-12-29T05:45:26.332Z,9.61
2022-12-29T05:46:25.958Z,9.59
2022-12-29T05:47:25.888Z,9.59
2022-12-29T05:48:25.880Z,9.62
2022-12-29T05:49:25.862Z,9.61
2022-12-29T05:50:25.869Z,9.59
2022-12-29T05:51:25.857Z,9.59
2022-12-29T05:52:25.846Z,9.58
2022-12-29T05:53:25.824Z,9.55
2022-12-29T05:54:26.196Z,9.62
2022-12-29T05:55:25.831Z,9.59
2022-12-29T05:56:25.804Z,9.56
2022-12-29T05:57:25.780Z,9.55
2022-12-29T05:58:25.771Z,9.54
2022-12-29T05:59:26.551Z,9.48
2022-12-29T06:00:25.771Z,9.43
2022-12-29T06:01:25.789Z,9.40
2022-12-29T06:02:25.872Z,9.40
2022-12-29T06:03:26.010Z,9.39
2022-12-29T06:04:25.713Z,9.39
2022-12-29T06:05:25.712Z,9.41
2022-12-29T06:06:25.683Z,9.40
2022-12-29T06:07:25.674Z,9.43
2022-12-29T06:08:26.342Z,9.43
2022-12-29T06:09:25.661Z,9.43
2022-12-29T06:10:25.635Z,9.43
2022-12-29T06:11:25.645Z,9.41
2022-12-29T06:12:25.622Z,9.44
2022-12-29T06:13:25.607Z,9.44
2022-12-29T06:14:25.589Z,9.44
2022-12-29T06:15:25.595Z,9.44
2022-12-29T06:16:25.648Z,9.44
2022-12-29T06:17:26.414Z,9.43
2022-12-29T06:18:25.557Z,9.43
2022-12-29T06:19:25.547Z,9.41
2022-12-29T06:20:25.523Z,9.41
2022-12-29T06:21:25.517Z,9.43
2022-12-29T06:22:25.516Z,9.46
2022-12-29T06:23:25.516Z,9.46
2022-12-29T06:24:25.505Z,9.44
2022-12-29T06:25:25.495Z,9.51
2022-12-29T06:26:25.475Z,9.51
2022-12-29T06:27:25.456Z,9.51
2022-12-29T06:28:26.310Z,9.55
2022-12-29T06:29:25.431Z,9.58
2022-12-29T06:30:25.420Z,9.61
2022-12-29T06:31:25.460Z,9.61
2022-12-29T06:32:25.404Z,9.59
2022-12-29T06:33:25.399Z,9.58
2022-12-29T06:34:25.386Z,9.56
2022-12-29T06:35:25.369Z,9.55
2022-12-29T06:36:25.359Z,9.55
2022-12-29T06:37:25.354Z,9.50
2022-12-29T06:38:25.335Z,9.47
2022-12-29T06:39:25.321Z,9.43
2022-12-29T06:40:25.311Z,9.40
2022-12-29T06:41:31.779Z,9.41
2022-12-29T06:42:25.292Z,9.41
2022-12-29T06:43:25.294Z,9.40
2022-12-29T06:44:25.593Z,9.37
2022-12-29T06:45:25.268Z,9.34
2022-12-29T06:46:25.329Z,9.31
2022-12-29T06:47:25.246Z,9.29
2022-12-29T06:48:25.224Z,9.25
2022-12-29T06:49:25.929Z,9.22
2022-12-29T06:50:25.200Z,9.22
2022-12-29T06:51:25.200Z,9.19
2022-12-29T06:52:25.185Z,9.11
2022-12-29T06:53:25.177Z,9.13
2022-12-29T06:54:25.170Z,9.10
2022-12-29T06:55:25.147Z,9.10
2022-12-29T06:56:25.151Z,9.08
2022-12-29T06:57:25.135Z,9.08
2022-12-29T06:58:25.125Z,9.08
2022-12-29T06:59:25.101Z,9.04
2022-12-29T07:00:25.052Z,9.04
2022-12-29T07:01:25.103Z,8.97
2022-12-29T07:02:25.195Z,9.02
2022-12-29T07:03:25.072Z,9.02
2022-12-29T07:04:24.995Z,9.04
2022-12-29T07:05:25.043Z,9.03
2022-12-29T07:06:25.399Z,9.03
2022-12-29T07:07:24.966Z,9.03
2022-12-29T07:08:24.951Z,9.03
2022-12-29T07:09:24.954Z,9.02
2022-12-29T07:10:24.930Z,9.00
2022-12-29T07:11:25.471Z,9.00
2022-12-29T07:12:24.909Z,8.99
2022-12-29T07:13:24.900Z,8.97
2022-12-29T07:14:24.889Z,8.94
2022-12-29T07:15:24.880Z,8.94
2022-12-29T07:16:25.410Z,8.91
2022-12-29T07:17:24.852Z,8.92
2022-12-29T07:18:24.858Z,8.91
2022-12-29T07:19:25.579Z,8.94
2022-12-29T07:20:26.936Z,8.92
2022-12-29T07:21:24.810Z,8.91
2022-12-29T07:22:24.797Z,8.91
2022-12-29T07:23:24.788Z,8.95
2022-12-29T07:24:24.787Z,8.99
2022-12-29T07:25:24.784Z,8.97
2022-12-29T07:26:24.757Z,8.99
2022-12-29T07:27:25.190Z,8.97
2022-12-29T07:28:24.762Z,8.95
2022-12-29T07:29:24.728Z,8.99
2022-12-29T07:30:25.094Z,8.97
2022-12-29T07:31:24.724Z,8.97
2022-12-29T07:32:24.709Z,8.95
2022-12-29T07:33:24.682Z,8.95
2022-12-29T07:34:24.677Z,8.97
2022-12-29T07:35:24.678Z,8.95
2022-12-29T07:36:27.986Z,9.02
2022-12-29T07:37:24.646Z,9.02
2022-12-29T07:38:25.375Z,9.03
2022-12-29T07:39:24.618Z,9.04
2022-12-29T07:40:24.616Z,9.08
2022-12-29T07:41:24.628Z,9.13
2022-12-29T07:42:24.598Z,9.13
2022-12-29T07:43:24.954Z,9.13
2022-12-29T07:44:24.589Z,9.11
2022-12-29T07:45:24.559Z,9.11
2022-12-29T07:46:56.278Z,9.14
2022-12-29T07:47:24.544Z,9.11
2022-12-29T07:48:24.545Z,9.13
2022-12-29T07:49:24.545Z,9.18
2022-12-29T07:50:24.531Z,9.19
2022-12-29T07:51:24.499Z,9.19
2022-12-29T07:52:24.487Z,9.22
2022-12-29T07:53:24.478Z,9.19
2022-12-29T07:54:24.466Z,9.18
2022-12-29T07:55:24.460Z,9.16
2022-12-29T07:56:24.871Z,9.13
2022-12-29T07:57:31.329Z,9.13
2022-12-29T07:58:24.439Z,9.13
2022-12-29T07:59:24.415Z,9.11
2022-12-29T08:00:24.400Z,9.11
2022-12-29T08:01:24.957Z,9.14
2022-12-29T08:02:24.489Z,9.13
2022-12-29T08:03:24.397Z,9.11
2022-12-29T08:04:24.767Z,9.08
2022-12-29T08:05:24.350Z,9.13
2022-12-29T08:06:24.380Z,9.16
2022-12-29T08:07:24.329Z,9.13
2022-12-29T08:08:24.325Z,9.10
2022-12-29T08:09:25.030Z,9.10
2022-12-29T08:10:24.310Z,9.08
2022-12-29T08:11:24.280Z,9.16
2022-12-29T08:12:24.283Z,9.14
2022-12-29T08:13:24.285Z,9.18
2022-12-29T08:14:24.245Z,9.19
2022-12-29T08:15:28.655Z,9.18
2022-12-29T08:16:24.335Z,9.18
2022-12-29T08:17:24.210Z,9.19
2022-12-29T08:18:24.218Z,9.21
2022-12-29T08:19:24.228Z,9.19
2022-12-29T08:20:24.179Z,9.21
2022-12-29T08:21:24.204Z,9.21
2022-12-29T08:22:24.171Z,9.23
2022-12-29T08:23:24.597Z,9.22
2022-12-29T08:24:24.180Z,9.21
2022-12-29T08:25:24.270Z,9.22
2022-12-29T08:26:24.204Z,9.25
2022-12-29T08:27:24.124Z,9.28
2022-12-29T08:28:24.095Z,9.26
2022-12-29T08:29:24.469Z,9.28
2022-12-29T08:30:24.159Z,9.32
2022-12-29T08:31:24.172Z,9.29
2022-12-29T08:32:24.058Z,9.29
2022-12-29T08:33:24.045Z,9.31
2022-12-29T08:34:24.027Z,9.29
2022-12-29T08:35:24.025Z,9.28
2022-12-29T08:36:24.002Z,9.26
2022-12-29T08:37:30.753Z,9.23
2022-12-29T08:38:23.994Z,9.22
2022-12-29T08:39:23.971Z,9.23
2022-12-29T08:40:24.026Z,9.22
2022-12-29T08:41:23.950Z,9.21
2022-12-29T08:42:23.947Z,9.19
2022-12-29T08:43:23.933Z,9.21
2022-12-29T08:44:23.930Z,9.22
2022-12-29T08:45:23.907Z,9.19
2022-12-29T08:46:23.981Z,9.18
2022-12-29T08:47:23.882Z,9.18
2022-12-29T08:48:23.886Z,9.16
2022-12-29T08:49:24.192Z,9.14
2022-12-29T08:50:23.970Z,9.13
2022-12-29T08:51:25.126Z,9.16
2022-12-29T08:52:23.904Z,9.13
2022-12-29T08:53:23.837Z,9.06
2022-12-29T08:54:23.835Z,9.08
2022-12-29T08:55:23.797Z,9.04
2022-12-29T08:56:23.793Z,9.04
2022-12-29T08:57:23.774Z,9.03
2022-12-29T08:58:23.775Z,9.00
2022-12-29T08:59:23.756Z,8.99
2022-12-29T09:00:23.838Z,8.95
2022-12-29T09:01:23.844Z,8.94
2022-12-29T09:02:24.290Z,8.91
2022-12-29T09:03:54.585Z,8.91
2022-12-29T09:04:24.554Z,8.88
2022-12-29T09:05:23.698Z,8.87
2022-12-29T09:06:23.689Z,8.84
2022-12-29T09:07:23.680Z,8.84
2022-12-29T09:08:25.678Z,8.84
2022-12-29T09:09:23.643Z,8.87
2022-12-29T09:10:23.649Z,8.88
2022-12-29T09:11:23.624Z,8.85
2022-12-29T09:12:23.619Z,8.82
2022-12-29T09:13:23.642Z,8.81
2022-12-29T09:14:23.592Z,8.81
2022-12-29T09:15:23.583Z,8.74
2022-12-29T09:16:23.781Z,8.78
2022-12-29T09:17:23.558Z,8.76
2022-12-29T09:18:23.555Z,8.70
2022-12-29T09:19:23.548Z,8.66
2022-12-29T09:20:23.529Z,8.64
2022-12-29T09:21:23.522Z,8.64
2022-12-29T09:22:23.518Z,8.70
2022-12-29T09:23:23.514Z,8.73
2022-12-29T09:24:23.496Z,8.78
2022-12-29T09:25:23.474Z,8.78
2022-12-29T09:26:23.853Z,8.81
2022-12-29T09:27:23.467Z,8.84
2022-12-29T09:28:23.453Z,8.85
2022-12-29T09:29:23.464Z,8.88
2022-12-29T09:30:23.430Z,8.89
2022-12-29T09:31:23.556Z,8.94
2022-12-29T09:32:23.724Z,8.95
2022-12-29T09:33:23.394Z,8.99
2022-12-29T09:34:23.393Z,9.03
2022-12-29T09:35:23.381Z,9.08
2022-12-29T09:36:23.388Z,9.13
2022-12-29T09:37:23.355Z,9.14
2022-12-29T09:38:23.356Z,9.22
2022-12-29T09:39:24.163Z,9.22
2022-12-29T09:40:23.329Z,9.28
2022-12-29T09:41:23.313Z,9.31
2022-12-29T09:42:23.313Z,9.32
2022-12-29T09:43:23.294Z,9.34
2022-12-29T09:44:23.296Z,9.32
2022-12-29T09:45:23.283Z,9.31
2022-12-29T09:46:23.311Z,9.31
2022-12-29T09:47:23.640Z,9.36
2022-12-29T09:48:23.241Z,9.34
2022-12-29T09:49:23.246Z,9.37
2022-12-29T09:50:23.220Z,9.39
2022-12-29T09:51:23.611Z,9.41
2022-12-29T09:52:23.212Z,9.43
2022-12-29T09:53:23.189Z,9.41
2022-12-29T09:54:23.189Z,9.47
2022-12-29T09:55:23.178Z,9.48
2022-12-29T09:56:23.167Z,9.58
2022-12-29T09:57:23.565Z,9.65
2022-12-29T09:58:23.146Z,9.74
2022-12-29T09:59:23.138Z,9.79
2022-12-29T10:00:23.130Z,9.80
2022-12-29T10:01:23.245Z,9.87
2022-12-29T10:02:23.702Z,9.95
2022-12-29T10:03:23.108Z,10.01
2022-12-29T10:04:23.074Z,10.15
2022-12-29T10:05:23.068Z,10.26
2022-12-29T10:06:23.069Z,10.35
2022-12-29T10:07:30.961Z,10.33
2022-12-29T10:08:23.047Z,10.25
2022-12-29T10:09:23.019Z,10.22
2022-12-29T10:10:23.002Z,10.23
2022-12-29T10:11:23.004Z,10.28
2022-12-29T10:12:23.366Z,10.25
2022-12-29T10:13:23.382Z,10.40
2022-12-29T10:14:22.961Z,10.38
2022-12-29T10:15:22.954Z,10.33
2022-12-29T10:16:22.987Z,10.34
2022-12-29T10:17:22.945Z,10.31
2022-12-29T10:18:23.834Z,10.34
2022-12-29T10:19:25.925Z,10.38
2022-12-29T10:20:22.914Z,10.48
2022-12-29T10:21:22.911Z,10.41
2022-12-29T10:22:22.876Z,10.38
2022-12-29T10:23:22.879Z,10.49
2022-12-29T10:24:23.318Z,10.61
2022-12-29T10:25:23.686Z,10.60
2022-12-29T10:26:22.840Z,10.69
2022-12-29T10:27:22.845Z,10.74
2022-12-29T10:28:22.854Z,10.81
2022-12-29T10:29:22.824Z,10.90
2022-12-29T10:30:22.808Z,10.99
2022-12-29T10:31:22.860Z,11.02
2022-12-29T10:32:22.778Z,10.97
2022-12-29T10:33:23.106Z,10.97
2022-12-29T10:34:22.755Z,10.86
2022-12-29T10:35:22.756Z,10.78
2022-12-29T10:36:22.734Z,10.72
2022-12-29T10:37:22.723Z,10.68
2022-12-29T10:38:22.725Z,10.59
2022-12-29T10:39:22.707Z,10.56
2022-12-29T10:40:22.687Z,10.51
2022-12-29T10:41:22.707Z,10.57
2022-12-29T10:42:22.684Z,10.53
2022-12-29T10:43:22.673Z,10.46
2022-12-29T10:44:22.646Z,10.44
2022-12-29T10:45:22.648Z,10.37
2022-12-29T10:46:22.638Z,10.34
2022-12-29T10:47:23.057Z,10.31
2022-12-29T10:48:24.859Z,10.28
2022-12-29T10:49:22.775Z,10.25
2022-12-29T10:50:22.596Z,10.22
2022-12-29T10:51:22.582Z,10.22
2022-12-29T10:52:22.573Z,10.19
2022-12-29T10:53:22.587Z,10.22
2022-12-29T10:54:22.544Z,10.20
2022-12-29T10:55:22.532Z,10.19
2022-12-29T10:56:22.521Z,10.20
2022-12-29T10:57:22.523Z,10.22
2022-12-29T10:58:22.496Z,10.26
2022-12-29T10:59:22.503Z,10.30
2022-12-29T11:00:22.873Z,10.35
2022-12-29T11:01:22.619Z,10.42
2022-12-29T11:02:22.559Z,10.46
2022-12-29T11:03:22.538Z,10.42
2022-12-29T11:04:22.895Z,10.41
2022-12-29T11:05:22.435Z,10.38
2022-12-29T11:06:22.883Z,10.38
2022-12-29T11:07:27.115Z,10.38
2022-12-29T11:08:22.400Z,10.40
2022-12-29T11:09:25.741Z,10.40
2022-12-29T11:10:23.097Z,10.38
2022-12-29T11:11:22.364Z,10.40
2022-12-29T11:12:22.361Z,10.41
2022-12-29T11:13:22.345Z,10.40
2022-12-29T11:14:22.337Z,10.40
2022-12-29T11:15:22.328Z,10.40
2022-12-29T11:16:22.341Z,10.41
2022-12-29T11:17:22.313Z,10.44
2022-12-29T11:18:22.297Z,10.44
2022-12-29T11:19:22.282Z,10.44
2022-12-29T11:20:22.266Z,10.42
2022-12-29T11:21:22.278Z,10.48
2022-12-29T11:22:22.240Z,10.44
2022-12-29T11:23:22.593Z,10.42
2022-12-29T11:24:22.224Z,10.42
2022-12-29T11:25:22.213Z,10.40
2022-12-29T11:26:22.207Z,10.41
2022-12-29T11:27:22.200Z,10.41
2022-12-29T11:28:22.177Z,10.44
2022-12-29T11:29:22.181Z,10.46
2022-12-29T11:30:22.159Z,10.46
2022-12-29T11:31:22.204Z,10.46
2022-12-29T11:32:28.183Z,10.46
2022-12-29T11:33:22.145Z,10.48
2022-12-29T11:34:22.126Z,10.51
2022-12-29T11:35:22.118Z,10.49
2022-12-29T11:36:22.102Z,10.49
2022-12-29T11:37:22.100Z,10.49
2022-12-29T11:38:22.085Z,10.48
2022-12-29T11:39:22.067Z,10.51
2022-12-29T11:40:22.073Z,10.46
2022-12-29T11:41:22.043Z,10.49
2022-12-29T11:42:22.029Z,10.49
2022-12-29T11:43:22.034Z,10.49
2022-12-29T11:44:22.019Z,10.53
2022-12-29T11:45:22.403Z,10.51
2022-12-29T11:46:22.219Z,10.54
2022-12-29T11:47:21.994Z,10.53
2022-12-29T11:48:21.973Z,10.49
2022-12-29T11:49:21.970Z,10.49
2022-12-29T11:50:21.947Z,10.48
2022-12-29T11:51:25.198Z,10.51
2022-12-29T11:52:22.323Z,10.51
2022-12-29T11:53:22.336Z,10.51
2022-12-29T11:54:21.914Z,10.51
2022-12-29T11:55:21.896Z,10.49
2022-12-29T11:56:21.888Z,10.51
2022-12-29T11:57:21.882Z,10.49
2022-12-29T11:58:21.866Z,10.51
2022-12-29T11:59:21.859Z,10.51
2022-12-29T12:00:21.835Z,10.51
2022-12-29T12:01:21.892Z,10.48
2022-12-29T12:02:22.113Z,10.53
2022-12-29T12:03:21.941Z,10.54
2022-12-29T12:04:21.844Z,10.56
2022-12-29T12:05:21.797Z,10.56
2022-12-29T12:06:21.788Z,10.54
2022-12-29T12:07:21.779Z,10.56
2022-12-29T12:08:22.175Z,10.54
2022-12-29T12:09:21.747Z,10.53
2022-12-29T12:10:21.732Z,10.51
2022-12-29T12:11:21.732Z,10.54
2022-12-29T12:12:21.710Z,10.48
2022-12-29T12:13:22.148Z,10.49
2022-12-29T12:14:21.690Z,10.49
2022-12-29T12:15:21.711Z,10.48
2022-12-29T12:16:21.762Z,10.51
2022-12-29T12:17:21.676Z,10.54
2022-12-29T12:18:21.644Z,10.54
2022-12-29T12:19:21.642Z,10.54
2022-12-29T12:20:21.628Z,10.51
2022-12-29T12:21:21.640Z,10.53
2022-12-29T12:22:22.002Z,10.51
2022-12-29T12:23:22.062Z,10.51
2022-12-29T12:24:21.601Z,10.53
2022-12-29T12:25:21.584Z,10.51
2022-12-29T12:26:21.571Z,10.51
2022-12-29T12:27:21.563Z,10.54
2022-12-29T12:28:21.566Z,10.51
2022-12-29T12:29:21.547Z,10.54
2022-12-29T12:30:21.542Z,10.51
2022-12-29T12:31:21.604Z,10.54
2022-12-29T12:32:21.510Z,10.57
2022-12-29T12:33:21.507Z,10.59
2022-12-29T12:34:21.492Z,10.59
2022-12-29T12:35:22.366Z,10.57
2022-12-29T12:36:21.450Z,10.54
2022-12-29T12:37:21.454Z,10.51
2022-12-29T12:38:21.444Z,10.54
2022-12-29T12:39:21.428Z,10.53
2022-12-29T12:40:21.419Z,10.49
2022-12-29T12:41:22.021Z,10.49
2022-12-29T12:42:21.401Z,10.48
2022-12-29T12:43:21.410Z,10.46
2022-12-29T12:44:21.396Z,10.44
2022-12-29T12:45:21.375Z,10.46
2022-12-29T12:46:21.506Z,10.46
2022-12-29T12:47:21.348Z,10.46
2022-12-29T12:48:21.770Z,10.46
2022-12-29T12:49:21.328Z,10.44
2022-12-29T12:50:21.327Z,10.46
2022-12-29T12:51:21.315Z,10.44
2022-12-29T12:52:21.314Z,10.42
2022-12-29T12:53:21.296Z,10.44
2022-12-29T12:54:21.268Z,10.41
2022-12-29T12:55:21.257Z,10.40
2022-12-29T12:56:21.245Z,10.38
2022-12-29T12:57:21.266Z,10.40
2022-12-29T12:58:21.236Z,10.40
2022-12-29T12:59:21.229Z,10.41
2022-12-29T13:00:21.210Z,10.42
2022-12-29T13:01:21.275Z,10.41
2022-12-29T13:02:21.440Z,10.42
2022-12-29T13:03:21.636Z,10.44
2022-12-29T13:04:21.164Z,10.42
2022-12-29T13:05:26.156Z,10.44
2022-12-29T13:06:21.149Z,10.42
2022-12-29T13:07:21.139Z,10.44
2022-12-29T13:08:21.121Z,10.48
2022-12-29T13:09:21.111Z,10.46
2022-12-29T13:10:21.107Z,10.51
2022-12-29T13:11:21.093Z,10.48
2022-12-29T13:12:21.097Z,10.48